Time;durP1;ratioP1;P1;durP2;ratioP2;P2;SDS_P1;SDS_P2;PMS_P1;PMS_P2;Temp;Humidity;BMP_temperature;BMP_pressure;BME280_temperature;BME280_humidity;BME280_pressure;Samples;Min_cycle;Max_cycle;Signal;HPM_P1;HPM_P2
2022/12/06 00:01:04;;;;;;;27.45;19.02;;;22.70;40.90;;;;;;7671789;22;84410;-74
2022/12/06 00:04:05;;;;;;;26.05;17.73;;;22.70;40.80;;;;;;7677371;22;83835;-71
2022/12/06 00:07:06;;;;;;;30.48;19.05;;;22.70;40.80;;;;;;7675047;22;84310;-74
2022/12/06 00:10:06;;;;;;;26.70;18.13;;;22.70;40.80;;;;;;7673360;22;83818;-72
2022/12/06 00:13:06;;;;;;;26.80;18.67;;;22.70;40.80;;;;;;7673761;22;82858;-71
2022/12/06 00:16:07;;;;;;;28.63;18.95;;;22.70;40.90;;;;;;7674991;22;83680;-71
2022/12/06 00:19:07;;;;;;;29.25;19.40;;;22.70;40.90;;;;;;7673210;22;82998;-75
2022/12/06 00:22:08;;;;;;;26.63;19.15;;;22.60;40.80;;;;;;7674147;22;82897;-74
2022/12/06 00:25:08;;;;;;;25.65;17.83;;;22.70;41.00;;;;;;7674941;22;83933;-73
2022/12/06 00:28:09;;;;;;;26.13;18.17;;;22.60;41.00;;;;;;7675934;22;83774;-65
2022/12/06 00:31:09;;;;;;;30.15;19.30;;;22.60;40.80;;;;;;7673869;22;83218;-65
2022/12/06 00:34:10;;;;;;;29.98;19.80;;;22.60;40.90;;;;;;7674266;22;83404;-64
2022/12/06 00:37:10;;;;;;;26.58;18.67;;;22.70;41.00;;;;;;7673237;22;83479;-63
2022/12/06 00:40:11;;;;;;;29.05;18.90;;;22.70;41.10;;;;;;7672182;22;83090;-64
2022/12/06 00:43:11;;;;;;;27.00;18.20;;;22.70;41.10;;;;;;7675149;22;83096;-64
2022/12/06 00:46:12;;;;;;;28.05;18.42;;;22.70;41.30;;;;;;7673004;22;83623;-72
2022/12/06 00:49:12;;;;;;;25.05;17.55;;;22.60;41.10;;;;;;7646148;22;83223;-73
2022/12/06 00:52:13;;;;;;;26.88;18.33;;;22.60;41.20;;;;;;7674173;22;84802;-73
2022/12/06 00:55:13;;;;;;;26.65;18.95;;;22.60;41.20;;;;;;7676190;22;82966;-71
2022/12/06 00:58:14;;;;;;;27.17;18.27;;;22.60;41.20;;;;;;7673722;22;83293;-70
2022/12/06 01:01:14;;;;;;;27.02;17.90;;;22.60;41.10;;;;;;7673967;22;84831;-70
2022/12/06 01:04:15;;;;;;;26.23;18.85;;;22.60;41.20;;;;;;7673754;22;83358;-64
2022/12/06 01:07:15;;;;;;;25.15;18.58;;;22.60;41.10;;;;;;7673324;22;84807;-64
2022/12/06 01:10:16;;;;;;;28.48;19.05;;;22.60;41.00;;;;;;7672232;22;82955;-65
2022/12/06 01:13:16;;;;;;;29.85;19.08;;;22.70;41.10;;;;;;7671789;22;83982;-65
2022/12/06 01:16:17;;;;;;;24.67;17.67;;;22.60;41.10;;;;;;7674369;22;83342;-65
2022/12/06 01:19:17;;;;;;;26.42;19.10;;;22.60;41.10;;;;;;7674085;22;82993;-66
2022/12/06 01:22:18;;;;;;;30.88;19.35;;;22.60;41.20;;;;;;7674190;22;82995;-66
2022/12/06 01:25:18;;;;;;;25.23;17.90;;;22.60;41.20;;;;;;7674332;22;82994;-65
2022/12/06 01:28:19;;;;;;;29.48;20.15;;;22.70;41.20;;;;;;7673948;22;84062;-65
2022/12/06 01:31:19;;;;;;;26.20;18.92;;;22.60;41.20;;;;;;7676464;22;83069;-65
2022/12/06 01:34:20;;;;;;;27.50;19.25;;;22.70;41.20;;;;;;7674243;22;83103;-65
2022/12/06 01:37:20;;;;;;;26.67;19.23;;;22.60;41.30;;;;;;7673225;22;83000;-65
2022/12/06 01:40:21;;;;;;;27.45;19.42;;;22.60;41.10;;;;;;7672746;22;82992;-72
2022/12/06 01:43:21;;;;;;;29.75;19.92;;;22.60;41.10;;;;;;7676250;22;83322;-71
2022/12/06 01:46:22;;;;;;;32.30;21.30;;;22.60;41.20;;;;;;7672375;22;83164;-71
2022/12/06 01:49:22;;;;;;;30.20;20.52;;;22.60;41.30;;;;;;7672555;22;83068;-73
2022/12/06 01:52:23;;;;;;;27.85;19.92;;;22.60;41.30;;;;;;7673889;22;85514;-72
2022/12/06 01:55:23;;;;;;;29.08;20.30;;;22.60;41.30;;;;;;7676137;22;83677;-70
2022/12/06 01:58:24;;;;;;;30.67;21.48;;;22.60;41.20;;;;;;7674330;22;83729;-70
2022/12/06 02:01:24;;;;;;;29.98;21.73;;;22.60;41.20;;;;;;7671356;22;83432;-71
2022/12/06 02:04:25;;;;;;;30.60;21.20;;;22.60;41.20;;;;;;7672646;22;82884;-70
2022/12/06 02:07:26;;;;;;;32.60;21.40;;;22.60;41.30;;;;;;7673470;22;83238;-71
2022/12/06 02:10:26;;;;;;;32.67;21.10;;;22.60;41.30;;;;;;7673231;22;84251;-71
2022/12/06 02:13:27;;;;;;;34.33;23.15;;;22.60;41.20;;;;;;7671042;22;83068;-71
2022/12/06 02:16:27;;;;;;;32.45;21.75;;;22.60;41.30;;;;;;7673494;22;83378;-66
2022/12/06 02:19:28;;;;;;;33.22;21.23;;;22.60;41.40;;;;;;7675732;22;86085;-67
2022/12/06 02:22:28;;;;;;;31.10;20.95;;;22.60;41.30;;;;;;7660011;22;83143;-67
2022/12/06 02:25:29;;;;;;;30.20;21.58;;;22.60;41.50;;;;;;7673804;22;84359;-66
2022/12/06 02:28:29;;;;;;;31.33;21.80;;;22.60;41.30;;;;;;7672624;22;84382;-65
2022/12/06 02:31:30;;;;;;;27.63;21.45;;;22.60;41.30;;;;;;7673158;22;83592;-65
2022/12/06 02:34:30;;;;;;;29.67;20.33;;;22.60;41.30;;;;;;7647082;22;85793;-65
2022/12/06 02:37:31;;;;;;;29.75;20.88;;;22.60;41.40;;;;;;7672490;22;84290;-66
2022/12/06 02:40:31;;;;;;;35.50;21.30;;;22.60;41.40;;;;;;7674234;22;83476;-66
2022/12/06 02:43:32;;;;;;;31.58;21.10;;;22.50;41.40;;;;;;7673543;22;84076;-65
2022/12/06 02:46:32;;;;;;;32.70;21.77;;;22.60;41.40;;;;;;7673624;22;83217;-66
2022/12/06 02:49:33;;;;;;;30.73;21.50;;;22.60;41.50;;;;;;7672800;22;82980;-66
2022/12/06 02:52:33;;;;;;;31.08;20.90;;;22.60;41.40;;;;;;7673241;22;83051;-64
2022/12/06 02:55:34;;;;;;;30.33;20.77;;;22.50;41.40;;;;;;7644981;22;83352;-62
2022/12/06 02:58:35;;;;;;;30.33;21.45;;;22.60;41.50;;;;;;7671237;22;83560;-63
2022/12/06 03:01:36;;;;;;;27.25;20.10;;;22.60;41.60;;;;;;7647449;22;83105;-63
2022/12/06 03:04:45;;;;;;;31.63;21.23;;;22.60;41.50;;;;;;7672036;22;84188;-64
2022/12/06 03:07:45;;;;;;;28.17;19.45;;;22.60;41.60;;;;;;7673205;22;84128;-64
2022/12/06 03:10:46;;;;;;;28.52;19.95;;;22.50;41.40;;;;;;7675058;22;82753;-63
2022/12/06 03:13:46;;;;;;;28.67;20.25;;;22.50;41.50;;;;;;7674929;22;83151;-63
2022/12/06 03:16:47;;;;;;;32.42;20.52;;;22.50;41.50;;;;;;7674650;22;82879;-62
2022/12/06 03:19:48;;;;;;;30.67;19.98;;;22.50;41.70;;;;;;7673988;22;83342;-62
2022/12/06 03:22:48;;;;;;;29.88;19.58;;;22.50;42.20;;;;;;7671857;22;83450;-62
2022/12/06 03:25:48;;;;;;;29.42;19.75;;;22.50;41.60;;;;;;7673993;22;82833;-63
2022/12/06 03:28:49;;;;;;;30.10;20.05;;;22.50;41.60;;;;;;7649657;22;84486;-62
2022/12/06 03:31:50;;;;;;;31.20;20.85;;;22.50;41.50;;;;;;7674706;22;83066;-64
2022/12/06 03:34:50;;;;;;;29.88;20.20;;;22.50;41.60;;;;;;7673794;22;83558;-65
2022/12/06 03:37:50;;;;;;;27.50;19.70;;;22.60;41.60;;;;;;7671751;22;84715;-65
2022/12/06 03:40:51;;;;;;;29.52;19.52;;;22.50;41.40;;;;;;7673950;22;83473;-66
2022/12/06 03:43:51;;;;;;;27.90;19.70;;;22.50;41.50;;;;;;7673021;22;82733;-65
2022/12/06 03:46:52;;;;;;;26.63;18.55;;;22.50;41.50;;;;;;7675007;22;83874;-65
2022/12/06 03:49:52;;;;;;;26.83;18.88;;;22.50;41.60;;;;;;7674530;22;83008;-62
2022/12/06 03:52:53;;;;;;;26.65;18.70;;;22.50;41.50;;;;;;7672581;22;84895;-62
2022/12/06 03:55:53;;;;;;;28.35;19.13;;;22.50;41.60;;;;;;7672663;22;82905;-64
2022/12/06 03:58:54;;;;;;;28.25;18.27;;;22.50;41.50;;;;;;7673666;22;83530;-63
2022/12/06 04:01:54;;;;;;;25.60;17.95;;;22.50;41.50;;;;;;7671341;22;83669;-63
2022/12/06 04:04:55;;;;;;;24.10;16.75;;;22.50;41.50;;;;;;7676795;22;83236;-63
2022/12/06 04:07:55;;;;;;;26.33;17.17;;;22.50;41.50;;;;;;7671104;22;82831;-63
2022/12/06 04:10:56;;;;;;;27.90;17.73;;;22.50;41.50;;;;;;7647717;22;84451;-64
2022/12/06 04:13:56;;;;;;;24.60;16.88;;;22.50;41.50;;;;;;7672769;22;84141;-64
2022/12/06 04:20:16;;;;;;;30.00;19.02;;;22.60;41.20;;;;;;7672191;22;86211;-64
2022/12/06 04:23:16;;;;;;;29.08;18.38;;;22.60;41.00;;;;;;7671084;22;83289;-64
2022/12/06 04:26:17;;;;;;;26.40;17.90;;;22.70;40.90;;;;;;7672706;22;84448;-69
2022/12/06 04:39:15;;;;;;;24.02;17.05;;;22.80;40.80;;;;;;7674021;22;83482;-69
2022/12/06 04:45:34;;;;;;;28.30;17.60;;;22.90;40.80;;;;;;7672865;22;83074;-65
2022/12/06 04:48:35;;;;;;;24.60;16.23;;;23.00;40.90;;;;;;7675538;22;82926;-65
2022/12/06 04:51:36;;;;;;;26.48;16.85;;;23.00;40.80;;;;;;7670012;22;83512;-67
2022/12/06 04:54:36;;;;;;;23.13;15.70;;;23.00;40.90;;;;;;7673397;22;83557;-61
2022/12/06 04:57:37;;;;;;;26.70;16.73;;;23.00;41.10;;;;;;7654514;22;82895;-60
2022/12/06 05:00:37;;;;;;;28.30;15.88;;;23.10;41.20;;;;;;7676543;22;83369;-64
2022/12/06 05:03:38;;;;;;;25.95;15.38;;;23.10;41.50;;;;;;7670492;22;83272;-61
2022/12/06 05:06:38;;;;;;;23.65;15.50;;;23.10;41.70;;;;;;7673020;22;82924;-60
2022/12/06 05:09:39;;;;;;;24.25;15.73;;;23.10;41.80;;;;;;7672886;22;82876;-64
2022/12/06 05:12:39;;;;;;;26.55;14.77;;;23.20;41.70;;;;;;7675221;22;83191;-64
2022/12/06 05:15:40;;;;;;;25.95;15.95;;;23.20;41.80;;;;;;7674185;22;82992;-60
2022/12/06 05:18:40;;;;;;;24.42;16.83;;;23.30;41.80;;;;;;7674115;22;83093;-59
2022/12/06 05:21:42;;;;;;;27.02;15.80;;;23.30;41.80;;;;;;7673460;22;82775;-62
2022/12/06 05:24:42;;;;;;;26.30;17.10;;;23.30;41.60;;;;;;7674161;22;83313;-62
2022/12/06 05:27:43;;;;;;;24.30;16.50;;;23.30;41.60;;;;;;7672023;22;90082;-65
2022/12/06 05:30:44;;;;;;;28.52;17.42;;;23.40;41.50;;;;;;7674832;22;83688;-68
2022/12/06 05:33:44;;;;;;;24.48;17.27;;;23.50;41.50;;;;;;7671899;22;83067;-61
2022/12/06 05:36:45;;;;;;;28.55;17.88;;;23.50;41.30;;;;;;7674584;22;83068;-66
2022/12/06 05:39:45;;;;;;;27.95;18.40;;;23.50;41.30;;;;;;7695078;22;83285;-72
2022/12/06 05:42:46;;;;;;;33.63;19.85;;;23.50;41.30;;;;;;7710886;22;83178;-66
2022/12/06 05:45:46;;;;;;;31.13;18.67;;;23.50;41.10;;;;;;7710246;22;83319;-66
2022/12/06 05:48:47;;;;;;;34.83;18.35;;;23.50;41.10;;;;;;7709007;22;84280;-61
2022/12/06 05:51:47;;;;;;;27.48;17.95;;;23.50;41.20;;;;;;7711754;22;83310;-71
2022/12/06 05:54:47;;;;;;;33.97;18.15;;;23.50;41.50;;;;;;7709322;22;83060;-70
2022/12/06 05:57:48;;;;;;;28.95;17.92;;;23.50;41.80;;;;;;7712106;22;84672;-61
2022/12/06 06:00:49;;;;;;;31.92;18.80;;;23.50;42.00;;;;;;7713756;22;83158;-61
2022/12/06 06:03:49;;;;;;;32.65;19.15;;;23.50;42.00;;;;;;7708717;22;83309;-61
2022/12/06 06:06:50;;;;;;;31.83;18.42;;;23.50;41.70;;;;;;7710063;22;83340;-62
2022/12/06 06:09:50;;;;;;;29.35;18.48;;;23.40;41.60;;;;;;7706921;22;83197;-62
2022/12/06 06:12:51;;;;;;;29.48;19.02;;;23.30;41.40;;;;;;7708028;22;82931;-62
2022/12/06 06:15:51;;;;;;;31.30;18.92;;;23.30;41.40;;;;;;7707456;22;83046;-62
2022/12/06 06:18:52;;;;;;;32.25;19.50;;;23.30;41.40;;;;;;7707582;22;83093;-62
2022/12/06 06:21:52;;;;;;;29.67;19.58;;;23.30;41.40;;;;;;7708857;22;83400;-61
2022/12/06 06:24:53;;;;;;;30.65;19.02;;;23.30;41.30;;;;;;7707227;22;88999;-63
2022/12/06 06:27:53;;;;;;;28.23;18.45;;;23.20;41.30;;;;;;7709451;22;83326;-63
2022/12/06 06:30:54;;;;;;;29.02;17.88;;;23.20;41.30;;;;;;7707515;22;83356;-63
2022/12/06 06:33:54;;;;;;;28.40;18.25;;;23.20;41.30;;;;;;7706254;22;82672;-68
2022/12/06 06:36:55;;;;;;;29.35;18.15;;;23.20;41.30;;;;;;7708400;22;84646;-71
2022/12/06 06:39:55;;;;;;;29.60;19.20;;;23.10;41.20;;;;;;7711721;22;83148;-71
2022/12/06 06:42:56;;;;;;;29.83;18.40;;;23.10;41.20;;;;;;7713129;22;84138;-71
2022/12/06 06:45:56;;;;;;;27.00;18.20;;;23.10;41.10;;;;;;7711075;22;83156;-71
2022/12/06 06:48:57;;;;;;;29.50;18.83;;;23.10;41.10;;;;;;7713191;22;83064;-71
2022/12/06 06:51:57;;;;;;;27.65;18.33;;;23.00;40.90;;;;;;7715205;22;82994;-72
2022/12/06 06:54:58;;;;;;;29.20;18.65;;;23.00;40.90;;;;;;7712842;22;85371;-72
2022/12/06 06:57:58;;;;;;;26.98;17.77;;;23.00;40.80;;;;;;7712030;22;84419;-70
2022/12/06 07:00:59;;;;;;;26.17;17.58;;;23.00;40.70;;;;;;7686184;22;84876;-71
2022/12/06 07:03:59;;;;;;;25.80;17.13;;;22.90;40.80;;;;;;7714011;22;83833;-71
2022/12/06 07:07:00;;;;;;;26.67;16.83;;;22.90;40.80;;;;;;7712577;22;82952;-71
2022/12/06 07:10:00;;;;;;;25.73;16.80;;;22.90;40.80;;;;;;7711261;22;83754;-62
2022/12/06 07:13:01;;;;;;;26.02;18.33;;;22.90;40.80;;;;;;7710322;22;83265;-62
2022/12/06 07:16:01;;;;;;;25.00;16.80;;;22.90;40.90;;;;;;7714080;22;83584;-62
2022/12/06 07:19:02;;;;;;;27.88;17.55;;;22.90;40.80;;;;;;7712392;22;83415;-61
2022/12/06 07:22:02;;;;;;;25.60;16.45;;;22.90;40.80;;;;;;7712067;22;83049;-61
2022/12/06 07:25:03;;;;;;;24.17;16.02;;;22.90;40.80;;;;;;7711021;22;83075;-62
2022/12/06 07:28:03;;;;;;;24.17;16.83;;;22.80;40.70;;;;;;7714663;22;83622;-61
2022/12/06 07:31:04;;;;;;;23.17;14.82;;;22.80;40.70;;;;;;7711121;22;83598;-76
2022/12/06 07:34:05;;;;;;;23.15;15.95;;;22.80;40.60;;;;;;7713508;22;83004;-77
2022/12/06 07:37:05;;;;;;;22.42;16.20;;;22.80;40.60;;;;;;7714156;22;83553;-76
2022/12/06 07:40:06;;;;;;;22.25;14.45;;;22.80;40.60;;;;;;7685411;22;86103;-76
2022/12/06 07:46:26;;;;;;;23.27;15.75;;;22.80;40.60;;;;;;7712176;22;82896;-75
2022/12/06 07:49:26;;;;;;;19.77;14.32;;;22.80;40.50;;;;;;7686028;22;84700;-71
2022/12/06 07:52:27;;;;;;;18.58;14.13;;;22.70;40.50;;;;;;7711721;22;82874;-71
2022/12/06 07:55:27;;;;;;;20.13;14.45;;;22.70;40.40;;;;;;7711260;22;84298;-70
2022/12/06 07:58:28;;;;;;;19.90;14.25;;;22.70;40.40;;;;;;7713448;22;83800;-70
2022/12/06 08:01:28;;;;;;;20.30;13.63;;;22.70;40.40;;;;;;7712260;22;82674;-71
2022/12/06 08:04:29;;;;;;;22.70;14.65;;;22.70;41.00;;;;;;7711841;22;82976;-71
2022/12/06 08:07:30;;;;;;;20.00;14.63;;;22.70;40.50;;;;;;7713737;22;83006;-71
2022/12/06 08:10:30;;;;;;;19.95;13.95;;;22.70;40.50;;;;;;7711521;22;84543;-70
2022/12/06 08:13:31;;;;;;;19.63;13.35;;;22.70;40.60;;;;;;7710983;22;83348;-71
2022/12/06 08:16:31;;;;;;;16.67;12.77;;;22.60;40.50;;;;;;7711000;22;83046;-71
2022/12/06 08:19:32;;;;;;;19.15;13.05;;;22.60;40.70;;;;;;7686149;22;84888;-71
2022/12/06 08:22:32;;;;;;;18.45;13.73;;;22.60;40.70;;;;;;7711352;22;82924;-72
2022/12/06 08:25:33;;;;;;;16.42;12.90;;;22.60;40.70;;;;;;7711443;22;86902;-71
2022/12/06 08:28:33;;;;;;;19.08;13.60;;;22.60;40.80;;;;;;7712872;22;83129;-69
2022/12/06 08:31:34;;;;;;;18.08;12.63;;;22.70;40.80;;;;;;7712529;22;83278;-70
2022/12/06 08:34:34;;;;;;;16.67;12.75;;;22.70;40.70;;;;;;7711311;22;83482;-68
2022/12/06 08:37:35;;;;;;;18.55;13.52;;;22.70;40.30;;;;;;7711228;22;84324;-70
2022/12/06 08:40:35;;;;;;;16.38;11.77;;;22.70;40.20;;;;;;7684093;22;83129;-72
2022/12/06 08:43:36;;;;;;;18.17;13.38;;;22.80;40.20;;;;;;7710434;22;83461;-76
2022/12/06 08:46:36;;;;;;;19.60;12.57;;;22.80;40.10;;;;;;7714987;22;82847;-76
2022/12/06 08:49:37;;;;;;;17.10;12.10;;;22.80;40.10;;;;;;7712035;22;84089;-76
2022/12/06 08:52:37;;;;;;;19.73;13.02;;;22.90;40.10;;;;;;7712978;22;82926;-74
2022/12/06 08:55:38;;;;;;;14.00;11.57;;;22.90;40.10;;;;;;7710739;22;84384;-75
2022/12/06 08:58:38;;;;;;;16.88;11.45;;;22.90;40.00;;;;;;7714021;22;83896;-76
2022/12/06 09:01:39;;;;;;;14.95;11.40;;;23.00;40.00;;;;;;7712961;22;82992;-76
2022/12/06 09:04:39;;;;;;;16.48;11.38;;;23.00;40.00;;;;;;7711302;22;83148;-78
2022/12/06 09:07:40;;;;;;;15.10;11.43;;;23.00;40.00;;;;;;7715275;22;83324;-78
2022/12/06 09:10:40;;;;;;;14.10;10.98;;;23.00;40.10;;;;;;7711885;22;83972;-77
2022/12/06 09:13:41;;;;;;;16.52;11.98;;;23.10;40.10;;;;;;7713356;22;83073;-77
2022/12/06 09:16:42;;;;;;;14.55;11.40;;;23.10;40.10;;;;;;7714425;22;83261;-77
2022/12/06 09:19:42;;;;;;;16.75;11.65;;;23.10;40.00;;;;;;7710608;22;83019;-73
2022/12/06 09:22:43;;;;;;;17.10;11.63;;;23.10;40.00;;;;;;7714453;22;83402;-73
2022/12/06 09:25:44;;;;;;;14.50;10.68;;;23.10;40.00;;;;;;7683351;22;85025;-73
2022/12/06 09:28:44;;;;;;;16.00;11.90;;;23.10;40.00;;;;;;7712659;22;82703;-74
2022/12/06 09:31:45;;;;;;;14.55;10.60;;;23.20;40.00;;;;;;7709651;22;83532;-73
2022/12/06 09:34:45;;;;;;;14.77;11.02;;;23.20;39.90;;;;;;7712651;22;84316;-73
2022/12/06 09:37:46;;;;;;;16.88;11.05;;;23.20;39.90;;;;;;7711512;22;82934;-63
2022/12/06 09:40:46;;;;;;;14.70;11.30;;;23.20;39.90;;;;;;7710957;22;84122;-63
2022/12/06 09:43:47;;;;;;;13.68;10.88;;;23.20;39.90;;;;;;7711638;22;83371;-63
2022/12/06 09:46:47;;;;;;;13.25;10.38;;;23.20;39.90;;;;;;7686225;22;84349;-63
2022/12/06 09:49:48;;;;;;;13.45;10.77;;;23.20;39.90;;;;;;7709934;22;83024;-63
2022/12/06 09:52:48;;;;;;;14.57;10.77;;;23.20;40.00;;;;;;7712624;22;84352;-62
2022/12/06 09:55:49;;;;;;;13.48;10.20;;;23.20;39.90;;;;;;7709260;22;82820;-60
2022/12/06 09:58:49;;;;;;;13.35;9.93;;;23.20;39.90;;;;;;7713010;22;82726;-61
2022/12/06 10:01:50;;;;;;;12.77;10.07;;;23.20;39.90;;;;;;7714685;22;83045;-62
2022/12/06 10:04:50;;;;;;;13.55;10.35;;;23.20;39.90;;;;;;7710808;22;83347;-62
2022/12/06 10:07:50;;;;;;;13.20;9.80;;;23.20;39.90;;;;;;7684374;22;84368;-63
2022/12/06 10:10:51;;;;;;;13.43;10.23;;;23.20;40.50;;;;;;7717344;22;84041;-63
2022/12/06 10:13:51;;;;;;;13.38;10.02;;;23.20;39.90;;;;;;7708821;22;82786;-64
2022/12/06 10:16:52;;;;;;;14.18;10.15;;;23.20;40.00;;;;;;7710174;22;83621;-63
2022/12/06 10:19:52;;;;;;;15.80;11.27;;;23.20;39.90;;;;;;7711436;22;83701;-61
2022/12/06 10:22:53;;;;;;;15.63;10.73;;;23.10;39.90;;;;;;7712658;22;83504;-63
2022/12/06 10:25:53;;;;;;;14.90;9.93;;;23.10;39.90;;;;;;7711154;22;82856;-62
2022/12/06 10:28:54;;;;;;;13.43;10.02;;;23.10;39.90;;;;;;7716109;22;83091;-62
2022/12/06 10:31:55;;;;;;;16.63;10.63;;;23.10;39.90;;;;;;7708755;22;82664;-63
2022/12/06 10:34:56;;;;;;;13.02;10.27;;;23.10;39.90;;;;;;7711982;22;83933;-62
2022/12/06 10:37:56;;;;;;;11.52;9.20;;;23.10;40.30;;;;;;7711218;22;83074;-62
2022/12/06 10:40:57;;;;;;;13.55;9.90;;;23.10;40.00;;;;;;7714323;22;83219;-63
2022/12/06 10:43:57;;;;;;;11.85;9.13;;;23.00;39.90;;;;;;7714144;22;80204;-63
2022/12/06 10:47:05;;;;;;;11.82;9.77;;;23.00;39.90;;;;;;7688119;22;80404;-63
2022/12/06 10:50:05;;;;;;;14.05;10.32;;;23.00;39.90;;;;;;7715968;22;83727;-63
2022/12/06 10:53:06;;;;;;;10.68;9.35;;;23.00;40.00;;;;;;7710994;22;83093;-71
2022/12/06 10:56:06;;;;;;;13.18;9.65;;;23.00;39.90;;;;;;7686520;22;81615;-71
2022/12/06 10:59:07;;;;;;;13.32;10.18;;;23.00;39.80;;;;;;7715535;22;81013;-71
2022/12/06 11:02:07;;;;;;;13.00;10.10;;;22.90;39.80;;;;;;7712130;22;82602;-71
2022/12/06 11:05:08;;;;;;;13.07;9.75;;;22.90;39.70;;;;;;7709835;22;82847;-70
2022/12/06 11:08:08;;;;;;;11.60;9.15;;;22.90;39.90;;;;;;7714411;22;82802;-69
2022/12/06 11:11:09;;;;;;;11.68;8.85;;;22.90;39.90;;;;;;7714870;22;80550;-75
2022/12/06 11:14:09;;;;;;;13.13;10.15;;;22.90;39.90;;;;;;7717684;22;80111;-74
2022/12/06 11:17:10;;;;;;;13.13;9.70;;;22.80;39.90;;;;;;7710253;22;83337;-77
2022/12/06 11:20:10;;;;;;;13.23;9.77;;;22.80;40.00;;;;;;7714272;22;82769;-75
2022/12/06 11:23:11;;;;;;;10.05;8.90;;;22.80;40.00;;;;;;7715622;22;81000;-76
2022/12/06 11:26:11;;;;;;;14.05;9.73;;;22.80;40.00;;;;;;7717262;22;80796;-75
2022/12/06 11:29:12;;;;;;;14.43;10.05;;;22.80;40.00;;;;;;7716875;22;80638;-76
2022/12/06 11:32:12;;;;;;;14.55;10.30;;;22.80;40.00;;;;;;7711219;22;84484;-74
2022/12/06 11:35:13;;;;;;;15.65;10.32;;;22.80;40.00;;;;;;7713887;22;82999;-76
2022/12/06 11:38:13;;;;;;;12.40;9.52;;;22.80;40.00;;;;;;7711595;22;83300;-76
2022/12/06 11:41:14;;;;;;;12.63;9.73;;;22.70;40.00;;;;;;7716565;22;83038;-74
2022/12/06 11:44:14;;;;;;;12.85;9.50;;;22.80;40.10;;;;;;7688895;22;82762;-75
2022/12/06 11:47:15;;;;;;;11.05;8.82;;;22.80;40.00;;;;;;7716950;22;80450;-74
2022/12/06 11:50:15;;;;;;;12.80;10.38;;;22.80;40.00;;;;;;7716263;22;80121;-73
2022/12/06 11:53:16;;;;;;;13.98;9.52;;;22.70;39.90;;;;;;7712580;22;83726;-74
2022/12/06 11:56:16;;;;;;;13.73;9.65;;;22.70;39.90;;;;;;7715483;22;82074;-74
2022/12/06 11:59:19;;;;;;;12.57;9.77;;;22.70;39.90;;;;;;7715864;22;80531;-73
2022/12/06 12:02:19;;;;;;;12.70;9.52;;;22.70;39.90;;;;;;7717155;22;80509;-77
2022/12/06 12:05:20;;;;;;;15.15;10.50;;;22.70;40.00;;;;;;7717897;22;81955;-76
2022/12/06 12:08:21;;;;;;;10.85;9.63;;;22.70;40.00;;;;;;7712669;22;83329;-75
2022/12/06 12:11:21;;;;;;;15.27;11.15;;;22.70;40.10;;;;;;7716821;22;82972;-77
2022/12/06 12:14:22;;;;;;;11.52;9.52;;;22.70;40.20;;;;;;7716690;22;83296;-77
2022/12/06 12:17:22;;;;;;;12.95;9.73;;;22.60;40.30;;;;;;7717431;22;83282;-76
2022/12/06 12:20:23;;;;;;;11.88;9.13;;;22.60;40.30;;;;;;7718521;22;80084;-75
2022/12/06 12:23:23;;;;;;;12.82;10.27;;;22.70;40.60;;;;;;7715420;22;81048;-63
2022/12/06 12:26:24;;;;;;;13.93;10.98;;;22.70;40.50;;;;;;7713268;22;82932;-63
2022/12/06 12:29:24;;;;;;;13.20;10.00;;;22.70;40.30;;;;;;7714487;22;82771;-63
2022/12/06 12:32:25;;;;;;;13.50;10.63;;;22.70;40.10;;;;;;7709846;22;83002;-63
2022/12/06 12:35:27;;;;;;;12.60;10.38;;;22.70;40.10;;;;;;7712989;22;84103;-63
2022/12/06 12:38:27;;;;;;;13.35;10.73;;;22.80;40.10;;;;;;7710057;22;83234;-61
2022/12/06 12:41:28;;;;;;;12.50;9.68;;;22.80;40.10;;;;;;7714621;22;85328;-63
2022/12/06 12:44:29;;;;;;;11.93;9.57;;;22.90;40.10;;;;;;7716112;22;82844;-62
2022/12/06 12:47:30;;;;;;;10.95;9.02;;;22.90;40.00;;;;;;7714285;22;80500;-62
2022/12/06 12:50:30;;;;;;;12.75;9.55;;;22.90;40.00;;;;;;7714987;22;80409;-63
2022/12/06 12:53:31;;;;;;;13.27;10.07;;;23.00;40.00;;;;;;7718549;22;81191;-63
2022/12/06 12:56:31;;;;;;;13.75;10.52;;;23.00;40.00;;;;;;7711682;22;82732;-63
2022/12/06 12:59:32;;;;;;;12.07;9.93;;;23.00;40.00;;;;;;7711715;22;84044;-63
2022/12/06 13:02:32;;;;;;;13.68;9.77;;;23.00;40.00;;;;;;7716114;22;83161;-62
2022/12/06 13:05:33;;;;;;;13.05;9.98;;;23.00;40.00;;;;;;7716071;22;82447;-63
2022/12/06 13:08:33;;;;;;;12.50;10.10;;;23.10;40.10;;;;;;7711976;22;82432;-63
2022/12/06 13:11:34;;;;;;;13.57;9.73;;;23.10;40.10;;;;;;7685220;22;85302;-64
2022/12/06 13:14:34;;;;;;;12.55;9.70;;;23.10;40.10;;;;;;7715066;22;83488;-63
2022/12/06 13:17:35;;;;;;;13.93;9.93;;;23.10;40.10;;;;;;7717247;22;81317;-64
2022/12/06 13:20:35;;;;;;;12.35;10.38;;;23.10;40.10;;;;;;7716499;22;81093;-64
2022/12/06 13:23:36;;;;;;;13.30;10.18;;;23.10;40.10;;;;;;7712656;22;84344;-63
2022/12/06 13:26:36;;;;;;;12.52;9.45;;;23.10;40.10;;;;;;7710912;22;85018;-63
2022/12/06 13:29:37;;;;;;;12.38;9.52;;;23.20;40.20;;;;;;7718629;22;83352;-64
2022/12/06 13:32:37;;;;;;;12.95;9.88;;;23.20;40.10;;;;;;7714582;22;80874;-64
2022/12/06 13:35:39;;;;;;;15.32;10.52;;;23.20;40.10;;;;;;7714749;22;82844;-63
2022/12/06 13:38:39;;;;;;;12.30;9.43;;;23.20;40.10;;;;;;7707436;22;84489;-63
2022/12/06 13:44:59;;;;;;;11.48;9.35;;;23.20;40.10;;;;;;7712886;22;80810;-61
2022/12/06 13:47:59;;;;;;;12.55;9.75;;;23.20;40.10;;;;;;7712411;22;80378;-62
2022/12/06 13:51:03;;;;;;;13.02;9.68;;;23.20;40.10;;;;;;7711869;22;81530;-63
2022/12/06 13:54:04;;;;;;;12.60;9.25;;;23.20;40.10;;;;;;7712143;22;80597;-63
2022/12/06 13:57:04;;;;;;;11.65;8.90;;;23.20;40.10;;;;;;7713501;22;80785;-60
2022/12/06 14:00:05;;;;;;;10.95;8.50;;;23.20;40.00;;;;;;7711075;22;81103;-62
2022/12/06 14:03:05;;;;;;;9.95;8.55;;;23.20;40.10;;;;;;7710323;22;81823;-62
2022/12/06 14:06:06;;;;;;;13.38;8.55;;;23.20;40.10;;;;;;7706613;22;80941;-63
2022/12/06 14:09:06;;;;;;;9.95;7.25;;;23.20;40.10;;;;;;7714605;22;82295;-63
2022/12/06 14:12:07;;;;;;;12.18;7.63;;;23.20;40.00;;;;;;7714910;22;80481;-60
2022/12/06 14:15:07;;;;;;;10.02;7.18;;;23.30;40.00;;;;;;7687244;22;80939;-64
2022/12/06 14:18:08;;;;;;;8.93;7.00;;;23.20;40.10;;;;;;7713294;22;81403;-62
2022/12/06 14:21:08;;;;;;;8.82;6.97;;;23.30;40.20;;;;;;7713882;22;80923;-56
2022/12/06 14:24:09;;;;;;;12.20;6.50;;;23.30;40.40;;;;;;7715166;22;81380;-60
2022/12/06 14:27:09;;;;;;;9.00;6.25;;;23.20;41.40;;;;;;7715289;22;81010;-63
2022/12/06 14:30:10;;;;;;;13.90;7.05;;;23.30;41.80;;;;;;7709866;22;81481;-63
2022/12/06 14:33:10;;;;;;;11.15;6.13;;;23.30;42.10;;;;;;7713142;22;80866;-61
2022/12/06 14:36:11;;;;;;;12.57;6.20;;;23.30;43.10;;;;;;7715757;22;80743;-61
2022/12/06 14:39:11;;;;;;;21.33;5.82;;;23.30;42.90;;;;;;7712873;22;80697;-63
2022/12/06 14:45:31;;;;;;;8.60;5.43;;;23.30;43.10;;;;;;7716680;22;80590;-64
2022/12/06 14:50:22;;;;;;;6.57;5.05;;;23.30;43.30;;;;;;7687990;22;80508;-64
2022/12/06 14:51:52;;;;;;;12.70;4.85;;;23.30;43.50;;;;;;7716802;22;80686;-68
2022/12/06 14:54:53;;;;;;;8.73;5.47;;;23.30;43.50;;;;;;7714555;22;80561;-65
2022/12/06 14:57:53;;;;;;;8.10;5.20;;;23.30;43.40;;;;;;7713487;22;80482;-66
2022/12/06 15:00:54;;;;;;;13.27;4.70;;;23.30;43.60;;;;;;7714345;22;80782;-64
2022/12/06 15:03:54;;;;;;;12.73;5.30;;;23.20;43.70;;;;;;7717386;22;81035;-61
2022/12/06 15:06:55;;;;;;;8.63;5.05;;;23.20;43.60;;;;;;7717810;22;80578;-63
2022/12/06 15:09:55;;;;;;;13.60;4.97;;;23.30;43.80;;;;;;7716636;22;80556;-64
2022/12/06 15:12:56;;;;;;;12.32;4.80;;;23.30;44.00;;;;;;7712508;22;80390;-65
2022/12/06 15:15:56;;;;;;;12.50;4.80;;;23.30;44.20;;;;;;7718042;22;81118;-63
2022/12/06 15:18:57;;;;;;;9.23;4.72;;;23.20;44.40;;;;;;7717657;22;81183;-65
2022/12/06 15:21:57;;;;;;;8.77;4.85;;;23.20;45.10;;;;;;7710300;22;80277;-67
2022/12/06 15:24:59;;;;;;;7.82;4.40;;;23.20;45.40;;;;;;7708869;22;80778;-66
2022/12/06 15:27:59;;;;;;;6.28;4.20;;;23.20;45.60;;;;;;7718382;22;81613;-80
2022/12/06 15:31:00;;;;;;;7.68;3.85;;;23.20;45.50;;;;;;7713222;22;80403;-71
2022/12/06 15:34:00;;;;;;;5.63;4.40;;;23.10;45.50;;;;;;7712574;22;80418;-76
2022/12/06 15:37:01;;;;;;;9.50;4.30;;;23.10;45.60;;;;;;7717007;22;81106;-73
2022/12/06 15:40:03;;;;;;;8.02;4.53;;;23.10;45.90;;;;;;7718256;22;81200;-69
2022/12/06 15:43:03;;;;;;;7.55;3.75;;;23.10;45.40;;;;;;7717977;22;80578;-71
2022/12/06 15:46:04;;;;;;;8.75;4.18;;;23.10;45.60;;;;;;7716135;22;81862;-74